U14 OCUP Mid Winter - GS
Results

U14 OCUP qualifiers

Jury
TD DYSON PETER AOA
Referee WALL CHRIS OSL
Chief of Race BUCKRELL GRAEME OSL
Other Workers
Start Ref MACNICOL CHUCK OSL
Finish Ref MOUNT RAY OSL
Race Admin THOMSON JANE OSL
Chief of Timing WHITE VANCE OSL
Technical Data
Course Name
Start 458
Finish 270
Vertical Drop
Length
Homologation N/A
1st Run 2nd run
Course Setter TEPERA CHRIS TSC HARRINGTON KIP OST
Number of Gates 30/29 29/28
Homologation N/A N/A
Forerunner 1 F1 F1 OSL F1 F1 OSL
Forerunner 2 F2 F2 OSL F2 F2 OSL
Forerunner 3 F3 F3 OSL F3 F3 OSL
Forerunner 4

Applied Penality: 356.76

Weather: SUNNY WITH CLOUDS

Snow:GROOMED HARD PACKED

Temperature Start: 0 Temperature Finish: 3

F:980

Rank Card Bib Name Club YOB Category 1st Run 2nd run Total Time Points
1 80725 2 NOAKES Alexis GEORG 04 U14 46.61 44.43 1:31.04 0
2 89490 8 BYERS Abbygail DEVGL 04 U14 47.43 44.41 1:31.84 8.61
3 82204 6 SEWELL Lily NATAC 04 U14 47.59 44.94 1:32.53 16.04
4 78192 9 VAN STRIEN Maxine NATAC 04 U14 47.35 45.50 1:32.85 19.48
5 80672 25 CRAIG Karina CRAIG 04 U14 48.13 45.25 1:33.38 25.19
6 78422 23 DENOMME Abigail NATAC 04 U14 48.91 44.53 1:33.44 25.83
7 81503 39 WHITE Elizabeth GEORG 04 U14 48.85 44.96 1:33.81 29.82
8 80730 17 SZIKLAI Lauren GEORG 04 U14 48.65 45.30 1:33.95 31.32
9 80818 3 HUNTER Sophie OSLER 04 U14 48.49 45.51 1:34.00 31.86
10 84825 26 HARVEY Marisol GLA 04 U14 48.25 45.82 1:34.07 32.62
11 80727 21 ROBERTSON Caroline GEORG 05 U14 48.50 45.94 1:34.44 36.6
12 80732 7 ZEMLA Zoe GEORG 04 U14 48.84 45.75 1:34.59 38.21
13 81497 68 PODIVINSKY Olivia GEORG 04 U14 48.11 46.49 1:34.60 38.32
14 82190 67 MULCAHY Pippa CRAIG 04 U14 48.90 45.80 1:34.70 39.4
15 80823 12 MACDONALD Georgia OSLER 04 U14 49.26 45.51 1:34.77 40.15
16 81088 33 BIER Charlize GEORG 04 U14 49.00 45.88 1:34.88 41.34
17 80691 16 FRY Kathryn DEVGL 04 U14 48.89 46.04 1:34.93 41.87
18 86220 30 OLSEN Natasha CRAIG 05 U14 48.53 46.41 1:34.94 41.98
19 84837 13 DONNELLY Madison CRAIG 05 U14 48.93 46.10 1:35.03 42.95
20 78618 54 WAYLAND Lauren JOZOW 05 U14 48.64 46.43 1:35.07 43.38
21 80816 1 HILLIER Kyra OSLER 04 U14 48.45 46.74 1:35.19 44.67
22 85457 41 CLARK Elli TSCBM 05 U14 49.14 46.28 1:35.42 47.15
23 81146 20 SYMONS Ava OSLER 04 U14 49.82 45.75 1:35.57 48.76
24 78410 4 CORNTHWAITE Mikayla NBAY 04 U14 48.95 46.76 1:35.71 50.27
25 86212 101 SINGER Morgan ALPIN 05 U14 49.81 45.94 1:35.75 50.7
26 85890 69 SANDERSON-KIRBY Kayla TSCBM 04 U14 49.82 46.54 1:36.36 57.27
27 81092 18 CANTONI Laura GEORG 04 U14 49.57 46.87 1:36.44 58.13
28 80619 24 HAWTIN Elle ALPIN 04 U14 49.61 46.89 1:36.50 58.77
29 80667 32 BENSON Claire CRAIG 04 U14 49.47 47.05 1:36.52 58.99
30 85777 61 ROBINSON Olivia CRAIG 05 U14 49.66 46.90 1:36.56 59.42
31 85773 106 ROLLINS Sarah OSLER 05 U14 49.96 46.64 1:36.60 59.85
32 81102 38 GATCLIFFE Emma GEORG 05 U14 49.30 47.38 1:36.68 60.71
33 85444 47 RAYMOND Tessa CRAIG 05 U14 49.47 47.24 1:36.71 61.03
34 81869 48 WALL Gabby ALPIN 05 U14 50.79 45.95 1:36.74 61.36
35 81687 53 CONLIFFE Rachael TSCBM 04 U14 49.58 47.33 1:36.91 63.19
36 79130 40 FREIDEL Lou TSCBM 04 U14 49.98 47.71 1:37.69 71.58
37 85544 31 HUANG Sian CALDN 04 U14 50.51 47.25 1:37.76 72.34
38 79149 56 VINCE Isabella BEAVR 04 U14 50.62 47.28 1:37.90 73.84
39 78175 36 GINGERICH Chloe TSCBM 04 U14 50.28 47.76 1:38.04 75.35
40 85462 75 MILLER Megan CRAIG 05 U14 50.00 48.20 1:38.20 77.07
41 80822 11 LOSSIUS Mia OSLER 04 U14 50.74 47.63 1:38.37 78.9
42 76643 14 AITKEN Kayleigh GLA 04 U14 50.68 47.72 1:38.40 79.23
43 78427 60 DINARDO Olivia JOZOW 05 U14 50.80 47.72 1:38.52 80.52
44 76808 57 PERRY Juliette TSCBM 04 U14 50.63 47.97 1:38.60 81.38
45 85296 45 TURNER Sofie CALDN 04 U14 50.93 47.77 1:38.70 82.46
46 80684 55 TURNER Christina CRAIG 04 U14 50.11 48.60 1:38.71 82.56
47 84846 44 HARGARTEN Laine CALDN 04 U14 50.98 48.20 1:39.18 87.62
48 80495 72 CROXON Grace CRAIG 04 U14 50.75 48.48 1:39.23 88.16
49 84757 28 WATT Jennifer OSLER 05 U14 50.79 48.59 1:39.38 89.78
50 82175 37 RUDSON Jordyn ALPIN 04 U14 51.15 48.31 1:39.46 90.64
51 80812 59 FREYKE Jessica OSLER 04 U14 51.48 48.67 1:40.15 98.06
52 78188 49 SHAWYER Emma TSCBM 04 U14 52.07 48.62 1:40.69 103.88
53 80726 78 PHELPS Erica GEORG 05 U14 51.98 49.00 1:40.98 107
54 78408 62 COPNICK Sarah TSCBM 04 U14 52.05 49.07 1:41.12 108.51
55 78747 74 IACOBUCCI Kate BEAVR 04 U14 51.85 49.43 1:41.28 110.23
56 80368 80 SAVOY Stephanie CALDN 04 U14 52.38 48.91 1:41.29 110.34
57 80821 81 LOCHRAN Mackenzie OSLER 04 U14 52.15 49.18 1:41.33 110.77
58 82249 46 OLIVER Rylan BEAVR 04 U14 52.40 49.20 1:41.60 113.67
59 78803 94 PIRIE Brooke JOZOW 05 U14 52.65 48.99 1:41.64 114.1
60 86126 93 MCOUAT Neve OSLER 05 U14 52.14 49.51 1:41.65 114.21
61 80369 79 CARTER Sara GLA 05 U14 52.87 49.89 1:42.76 126.16
62 85738 99 WEAMES Camryn MSFLD 05 U14 52.91 49.91 1:42.82 126.81
63 86213 63 THOMPSON Charlotte ALPIN 05 U14 53.02 50.15 1:43.17 130.57
64 79133 42 HUNTER Ava GEORG 05 U14 53.34 50.00 1:43.34 132.4
65 84758 76 WATT Lindsay OSLER 05 U14 52.79 50.81 1:43.60 135.2
66 80842 50 SHULMAN Ilyssa GLA 05 U14 53.30 50.33 1:43.63 135.53
67 86171 58 IRELAND Evy OSLER 05 U14 53.24 50.59 1:43.83 137.68
68 84699 84 BUSCH Sally CRAIG 05 U14 53.54 50.52 1:44.06 140.15
69 78474 66 KENDELL Trinity CRAIG 04 U14 53.16 51.48 1:44.64 146.4
70 81876 77 THOMSON Reese ALPIN 04 U14 54.00 50.74 1:44.74 147.47
71 81070 70 LEAIST Natalie CRAIG 04 U14 54.85 49.96 1:44.81 148.23
72 85314 83 PRIEST Elliette MSFLD 04 U14 54.88 50.05 1:44.93 149.52
73 78516 65 MURDOCH Antonia JOZOW 05 U14 54.34 50.97 1:45.31 153.61
74 81091 82 BROWN Eliza GEORG 05 U14 54.02 51.53 1:45.55 156.19
75 88248 89 WIGGAN Sophie CALDN 05 U14 54.48 51.13 1:45.61 156.84
76 80624 87 MORRISON Jaden ALPIN 05 U14 54.61 52.68 1:47.29 174.92
77 78172 103 DREGER Lulu TSCBM 05 U14 55.49 52.91 1:48.40 186.87
78 78808 5 PROSPERI Julia ADANC 04 U14 54.97 54.06 1:49.03 193.65
79 80708 97 ADAIR Safia GEORG 05 U14 56.15 53.00 1:49.15 194.95
80 88417 102 MCINTYRE SALINAS Surine CALDN 05 U14 56.24 53.26 1:49.50 198.71
81 72087 96 RIDE Madison DEVGL 05 U14 56.42 53.88 1:50.30 207.32
82 81137 92 WESSINGER Hailey GEORG 05 U14 57.66 53.43 1:51.09 215.83
83 82207 104 TERNER Amaris GEORG 05 U14 56.65 54.45 1:51.10 215.94
84 80370 88 CARTER Spencer GLA 05 U14 56.98 54.39 1:51.37 218.84
85 86153 105 VON TEICHMAN Chloe CRAIG 05 U14 58.77 53.92 1:52.69 233.05
86 85550 15 BOISSONNEAULT Cheyenne NBAY 04 U14 1:03.91 1:02.77 2:06.68 383.65
999 80689 64 COITO Kate DEVGL 04 U14 DNS DNS 0
999 82187 71 ENTICKNAP Tyra CRAIG 04 U14 DNS DNS 0
999 80703 73 SZWEZ Laura DEVGL 04 U14 DNS DNS 0
999 81099 27 EASTWOOD Jordan GEORG 05 U14 DNF 046.21 0
999 89489 29 RUSAW Isabella OSLER 04 U14 DNF 045.83 0
999 89503 35 MOYSEY Sabine OSLER 04 U14 DNF 049.96 0
999 81493 43 MACGREGOR Kate GEORG 04 U14 DNF 049.12 0
999 85474 51 TRAN-CHAPMAN Sophie MSFLD 04 U14 DNF 048.83 0
999 76743 85 KALINS Nora TSCBM 05 U14 DNF 049.51 0
999 88510 86 LUBORSKY Sophie ALPIN 04 U14 DNF 048.90 0
999 81084 90 VOGEL Eva DEVGL 05 U14 DNF 048.40 0
999 87013 91 CANNON Marissa CALDN 05 U14 DNF 054.45 0
999 74790 95 DIMKINA Kalina ALPIN 05 U14 DNF 049.45 0
999 87019 98 HUTTON Maggie CALDN 05 U14 DNF 055.70 0
999 88241 100 STOPPENBRINK Katie MSFLD 05 U14 DNF 050.07 0
999 82448 22 GILDAY Ellen DEVGL 04 U14 DSQ - 18 047.39 0
999 81113 10 JENKINS Melanie GEORG 04 U14 049.48 DNF 0
999 80664 19 ATKINSON Lindsay CRAIG 04 U14 049.81 DNF 0
999 87072 34 HEISZ Jamie MSFLD 05 U14 052.18 DNF 0
999 76233 52 RUDENKO Larissa ALPIN 05 U14 053.29 DNF 0
26/01/2018 / Osler Bluff / NAT18.5122
© MECTiming All Rights Reserverd 2018